Terminal Aerodrome Forecast
Issued by NWS

Home | Current Version | Previous Version | Text Only | Print | Product List | Glossary On
Versions: 1 2 3 4 5 6 7 8 9 10 11 12 13 14
000
FTUS46 KSEW 281700
TAFBLI
TAF
KBLI 281729Z 2818/2918 20005KT P6SM -SHRA SCT025 BKN035 OVC045
      TEMPO 2818/2822 -SHRA BKN025 OVC035
     FM282200 20008KT P6SM VCSH SCT025 BKN040=

USA.gov is the U.S. government's official web portal to all federal, state and local government web resources and services.